Time;durP1;ratioP1;P1;durP2;ratioP2;P2;SDS_P1;SDS_P2;PMS_P1;PMS_P2;Temp;Humidity;BMP_temperature;BMP_pressure;BME280_temperature;BME280_humidity;BME280_pressure;Samples;Min_cycle;Max_cycle;Signal;HPM_P1;HPM_P2
2022/10/30 12:43:37;;;;;;;9.73;3.78;;;;;;;24.25;47.19;100107.84;1080918;54;35306;-82
2022/10/30 12:44:43;;;;;;;8.70;4.10;;;;;;;24.01;47.94;100099.56;1093830;39;20665;-81
2022/10/30 12:45:51;;;;;;;7.45;4.30;;;;;;;23.83;48.42;100101.28;1087254;54;20042;-82
2022/10/30 12:46:55;;;;;;;10.15;4.30;;;;;;;23.68;48.80;100112.59;1087138;54;20035;-82
2022/10/30 12:48:03;;;;;;;9.60;4.22;;;;;;;23.62;48.41;100105.34;1088178;39;20578;-82
2022/10/30 12:49:13;;;;;;;10.70;4.70;;;;;;;23.52;49.18;100105.03;1087254;54;20053;-82
2022/10/30 12:50:24;;;;;;;7.63;4.50;;;;;;;23.32;49.85;100102.56;1087212;54;20035;-79
2022/10/30 12:51:34;;;;;;;13.43;5.55;;;;;;;23.20;50.10;100105.19;1087195;54;20030;-80
2022/10/30 12:52:46;;;;;;;8.38;4.53;;;;;;;23.23;50.32;100106.66;1087281;54;20046;-81
2022/10/30 12:53:57;;;;;;;11.85;4.43;;;;;;;23.18;50.43;100099.97;1087254;54;20070;-81
2022/10/30 12:55:05;;;;;;;6.97;4.15;;;;;;;23.25;50.15;100109.97;1087335;54;20034;-79
2022/10/30 12:56:11;;;;;;;7.78;4.28;;;;;;;23.28;50.13;100098.63;1087173;54;20034;-80
2022/10/30 12:57:18;;;;;;;7.72;4.80;;;;;;;23.26;50.33;100095.28;1087215;54;20031;-80
2022/10/30 12:58:27;;;;;;;7.68;4.70;;;;;;;23.20;50.20;100106.06;1087290;54;20034;-80
2022/10/30 12:59:45;;;;;;;7.00;3.80;;;;;;;23.12;50.07;100103.59;1087293;54;20054;-81
2022/10/30 13:00:53;;;;;;;7.35;3.80;;;;;;;23.09;50.49;100101.31;1087263;54;20034;-81
2022/10/30 13:02:03;;;;;;;10.13;4.30;;;;;;;23.10;50.48;100100.25;1087227;54;20128;-80
2022/10/30 13:03:22;;;;;;;8.15;3.97;;;;;;;22.92;50.17;100105.69;1087216;54;20030;-81
2022/10/30 13:04:27;;;;;;;7.03;3.60;;;;;;;23.04;50.35;100102.00;1087213;54;20049;-81
2022/10/30 13:05:37;;;;;;;13.30;4.65;;;;;;;22.99;50.55;100103.72;1087254;54;20063;-80
2022/10/30 13:06:45;;;;;;;10.15;4.60;;;;;;;22.94;50.81;100095.41;1087217;54;20116;-80
2022/10/30 13:07:56;;;;;;;12.00;4.75;;;;;;;22.95;50.74;100094.34;1087222;54;20116;-81
2022/10/30 13:09:11;;;;;;;11.75;5.07;;;;;;;22.90;50.70;100092.31;1087205;54;20054;-80
2022/10/30 13:10:24;;;;;;;11.00;4.45;;;;;;;22.89;50.84;100099.63;1087348;47;20098;-82
2022/10/30 13:11:34;;;;;;;7.65;3.95;;;;;;;22.97;50.65;100098.50;1087159;54;20053;-81
2022/10/30 13:12:39;;;;;;;7.38;4.05;;;;;;;22.97;50.94;100092.22;1087260;54;20064;-81
2022/10/30 13:13:47;;;;;;;6.03;3.95;;;;;;;23.03;50.83;100094.06;1087222;54;20094;-82
2022/10/30 13:14:55;;;;;;;8.38;4.00;;;;;;;22.94;50.91;100095.41;1087304;54;20031;-80
2022/10/30 13:16:02;;;;;;;11.93;4.40;;;;;;;22.97;51.19;100097.66;1087169;54;20030;-80
2022/10/30 13:17:12;;;;;;;6.82;3.78;;;;;;;22.97;51.27;100100.38;1087145;54;20046;-82
2022/10/30 13:18:16;;;;;;;8.00;3.80;;;;;;;23.01;51.37;100091.53;1086959;54;20034;-80
2022/10/30 13:19:20;;;;;;;8.70;4.40;;;;;;;22.95;51.51;100097.06;1090027;47;20031;-80
2022/10/30 13:20:22;;;;;;;8.35;4.05;;;;;;;22.99;51.30;100090.09;1087295;47;20502;-81
2022/10/30 13:21:33;;;;;;;9.23;4.20;;;;;;;22.99;51.59;100090.09;1087920;47;20046;-81
2022/10/30 13:22:42;;;;;;;8.00;4.07;;;;;;;22.97;51.46;100089.47;1087869;47;20015;-80
2022/10/30 13:23:53;;;;;;;6.72;3.92;;;;;;;22.99;51.77;100087.38;1090202;47;20034;-81
2022/10/30 13:25:02;;;;;;;7.40;3.97;;;;;;;22.92;51.76;100083.88;1087166;54;20023;-78
2022/10/30 13:26:12;;;;;;;10.32;4.93;;;;;;;22.92;52.05;100090.16;1087186;54;20038;-80
2022/10/30 13:27:22;;;;;;;11.00;5.85;;;;;;;22.88;52.10;100084.34;1087172;54;20038;-80
2022/10/30 13:28:27;;;;;;;7.63;4.90;;;;;;;22.90;52.38;100092.31;1087189;54;20038;-81
2022/10/30 13:29:37;;;;;;;8.45;4.63;;;;;;;22.84;52.60;100085.84;1087122;54;20015;-81
2022/10/30 13:30:56;;;;;;;8.82;4.45;;;;;;;22.83;52.45;100086.91;1088249;47;20045;-80
2022/10/30 13:32:14;;;;;;;7.82;4.72;;;;;;;22.88;52.65;100084.34;1088585;39;20250;-82
2022/10/30 13:33:20;;;;;;;7.63;4.65;;;;;;;22.90;52.90;100095.03;1087190;54;20042;-82
2022/10/30 13:34:34;;;;;;;8.98;5.90;;;;;;;22.92;52.67;100095.63;1094859;39;21058;-80
2022/10/30 13:35:47;;;;;;;8.77;5.55;;;;;;;22.90;52.90;100087.66;1087236;54;20035;-80
2022/10/30 13:36:54;;;;;;;8.32;5.03;;;;;;;22.96;52.86;100088.66;1092383;31;20775;-80
2022/10/30 13:38:07;;;;;;;11.07;5.25;;;;;;;22.90;53.44;100084.13;1087168;54;20030;-81
2022/10/30 13:39:21;;;;;;;8.98;5.00;;;;;;;22.86;53.73;100086.44;1088802;47;20031;-81
2022/10/30 13:40:34;;;;;;;9.60;4.82;;;;;;;22.89;53.62;100091.44;1087145;54;20041;-82
2022/10/30 13:41:43;;;;;;;8.07;4.50;;;;;;;22.92;53.88;100094.78;1087150;54;20034;-80
2022/10/30 13:43:01;;;;;;;8.48;4.43;;;;;;;22.84;54.03;100088.59;1087183;54;20033;-80
2022/10/30 13:44:18;;;;;;;7.07;4.18;;;;;;;22.90;54.06;100082.22;1086761;54;20030;-81
2022/10/30 13:45:33;;;;;;;7.07;3.75;;;;;;;22.88;54.29;100088.97;1087160;54;20018;-81
2022/10/30 13:46:59;;;;;;;5.90;3.38;;;;;;;22.77;55.46;100086.97;1087085;54;20054;-80
2022/10/30 13:48:10;;;;;;;7.60;3.72;;;;;;;22.85;54.69;100079.34;1087235;54;20057;-83
2022/10/30 13:49:31;;;;;;;6.95;3.38;;;;;;;22.77;55.47;100081.53;1087154;54;20030;-82
2022/10/30 13:50:53;;;;;;;8.25;4.05;;;;;;;22.82;55.04;100084.38;1087228;54;20030;-80
2022/10/30 13:52:06;;;;;;;7.15;3.38;;;;;;;22.83;55.32;100083.34;1087110;54;20033;-82
2022/10/30 13:53:17;;;;;;;9.05;3.67;;;;;;;22.82;55.27;100078.94;1087144;54;20039;-82
2022/10/30 13:54:23;;;;;;;8.32;4.65;;;;;;;22.83;55.10;100081.47;1087117;54;20034;-81
2022/10/30 13:55:31;;;;;;;7.57;3.65;;;;;;;22.89;55.16;100083.28;1087175;54;20037;-82
2022/10/30 13:56:33;;;;;;;7.05;3.70;;;;;;;22.88;55.06;100081.59;1087423;54;20046;-82
2022/10/30 13:57:45;;;;;;;12.57;3.95;;;;;;;22.87;55.25;100077.22;1087509;47;20714;-82
2022/10/30 13:58:55;;;;;;;6.70;4.05;;;;;;;22.85;55.38;100082.06;1090479;39;20693;-82
2022/10/30 14:00:06;;;;;;;7.63;3.80;;;;;;;22.83;55.64;100081.47;1087496;54;20030;-80
2022/10/30 14:01:14;;;;;;;10.00;4.35;;;;;;;22.84;55.65;100076.84;1087495;54;20053;-81
2022/10/30 14:02:36;;;;;;;8.90;4.38;;;;;;;22.74;55.28;100078.19;1087506;54;20079;-80
2022/10/30 14:03:51;;;;;;;7.72;4.55;;;;;;;22.73;55.21;100081.97;1092577;39;20598;-82
2022/10/30 14:04:58;;;;;;;7.85;4.47;;;;;;;22.81;55.20;100074.56;1087483;54;20042;-81
2022/10/30 14:06:11;;;;;;;7.85;4.47;;;;;;;22.84;55.29;100069.50;1087497;54;20030;-80
2022/10/30 14:07:26;;;;;;;10.52;5.20;;;;;;;22.77;54.85;100071.44;1087418;54;20035;-84
2022/10/30 14:08:37;;;;;;;11.32;5.07;;;;;;;22.80;54.89;100076.44;1087483;54;20333;-81
2022/10/30 14:09:46;;;;;;;10.50;5.13;;;;;;;22.83;54.84;100076.00;1087732;46;20033;-81
2022/10/30 14:10:53;;;;;;;9.98;5.63;;;;;;;22.82;54.79;100074.34;1087396;54;20108;-82
2022/10/30 14:11:57;;;;;;;7.85;4.25;;;;;;;22.87;54.93;100077.22;1087399;54;20078;-77
2022/10/30 14:13:14;;;;;;;7.10;4.68;;;;;;;22.79;55.10;100077.50;1087502;54;20038;-81
2022/10/30 14:14:31;;;;;;;9.02;4.55;;;;;;;22.80;55.14;100079.19;1087548;54;20035;-81
2022/10/30 14:15:39;;;;;;;7.32;4.32;;;;;;;22.85;55.16;100076.63;1087520;54;20053;-80
2022/10/30 14:16:45;;;;;;;6.85;4.35;;;;;;;22.86;55.04;100074.72;1087487;54;20034;-81
2022/10/30 14:18:17;;;;;;;8.68;4.95;;;;;;;22.66;55.50;100069.47;1087799;46;20041;-81
2022/10/30 14:19:24;;;;;;;12.57;5.68;;;;;;;22.67;55.68;100071.16;1087519;54;20088;-79
2022/10/30 14:20:27;;;;;;;10.32;5.05;;;;;;;22.67;55.79;100068.44;1088988;46;20039;-81
2022/10/30 14:21:33;;;;;;;8.02;4.90;;;;;;;22.76;55.17;100077.97;1087494;54;20034;-81
2022/10/30 14:22:36;;;;;;;8.57;5.32;;;;;;;22.79;55.12;100074.78;1087423;54;20030;-80
2022/10/30 14:23:40;;;;;;;14.27;7.78;;;;;;;22.82;55.11;100078.94;1087446;54;20072;-79
2022/10/30 14:24:46;;;;;;;10.00;5.82;;;;;;;22.84;55.02;100069.50;1087476;54;20045;-79
2022/10/30 14:26:19;;;;;;;8.80;5.40;;;;;;;22.65;55.48;100071.34;1087407;54;20057;-81
2022/10/30 14:27:29;;;;;;;10.82;5.18;;;;;;;22.68;55.63;100064.63;1087008;54;20039;-80
2022/10/30 14:28:31;;;;;;;9.25;5.82;;;;;;;22.71;56.03;100072.34;1087045;54;20039;-81
2022/10/30 14:29:48;;;;;;;8.93;5.03;;;;;;;22.68;55.75;100068.19;1087001;54;20117;-83
2022/10/30 14:31:01;;;;;;;12.90;6.07;;;;;;;22.61;55.97;100072.88;1087242;54;20034;-81
2022/10/30 14:32:40;;;;;;;12.02;5.40;;;;;;;22.63;55.90;100067.19;1087134;54;20031;-81
2022/10/30 14:33:47;;;;;;;8.13;4.80;;;;;;;22.67;56.05;100068.44;1088431;46;20030;-80
2022/10/30 14:34:58;;;;;;;9.07;5.60;;;;;;;22.67;56.05;100079.31;1087100;54;20057;-80
2022/10/30 14:36:20;;;;;;;15.40;5.60;;;;;;;22.65;56.19;100079.53;1087242;54;20030;-80
2022/10/30 14:37:55;;;;;;;9.70;5.50;;;;;;;22.62;56.36;100080.00;1087140;54;20058;-81
2022/10/30 14:39:03;;;;;;;8.63;4.82;;;;;;;22.64;56.54;100080.59;1087127;54;20034;-81
2022/10/30 14:40:34;;;;;;;8.52;4.72;;;;;;;22.59;56.60;100077.72;1087615;39;20701;-80
2022/10/30 14:41:59;;;;;;;6.50;4.65;;;;;;;22.57;56.29;100085.25;1086964;54;20026;-81
2022/10/30 14:43:08;;;;;;;7.97;4.30;;;;;;;22.63;56.57;100080.81;1086991;54;20065;-80
2022/10/30 14:44:44;;;;;;;9.52;4.85;;;;;;;22.47;56.95;100074.03;1086928;54;20038;-82
2022/10/30 14:45:52;;;;;;;10.98;5.32;;;;;;;22.48;56.87;100081.16;1087482;54;20057;-81
2022/10/30 14:47:08;;;;;;;8.07;4.40;;;;;;;22.44;56.89;100078.03;1087424;54;20057;-81
2022/10/30 14:48:25;;;;;;;8.70;5.22;;;;;;;22.43;57.10;100087.28;1087461;46;20065;-82
2022/10/30 14:49:46;;;;;;;10.95;5.18;;;;;;;22.15;58.00;100084.97;1087355;54;20202;-80
2022/10/30 14:51:15;;;;;;;8.90;5.28;;;;;;;22.23;57.93;100090.94;1087492;54;20052;-82
2022/10/30 14:52:29;;;;;;;7.68;4.82;;;;;;;22.24;57.92;100084.44;1087423;54;20054;-81
2022/10/30 14:53:54;;;;;;;12.30;4.70;;;;;;;22.22;58.10;100086.56;1087450;54;20042;-81
2022/10/30 14:55:10;;;;;;;9.10;5.30;;;;;;;22.25;58.04;100077.09;1089412;39;20708;-82
2022/10/30 14:56:25;;;;;;;10.18;5.50;;;;;;;22.23;58.08;100080.06;1087445;54;20732;-80
2022/10/30 14:57:43;;;;;;;9.40;4.78;;;;;;;22.22;57.79;100080.28;1087379;54;20904;-81
2022/10/30 14:59:19;;;;;;;14.10;10.27;;;;;;;22.19;58.31;100083.44;1089664;46;20118;-81
2022/10/30 15:00:42;;;;;;;12.48;7.55;;;;;;;22.16;58.29;100082.00;1087493;54;20046;-82
2022/10/30 15:01:51;;;;;;;11.20;6.15;;;;;;;22.21;58.50;100084.88;1088453;46;20030;-82
2022/10/30 15:02:59;;;;;;;11.55;6.47;;;;;;;22.22;58.42;100086.56;1094248;39;20594;-82
2022/10/30 15:04:16;;;;;;;11.23;6.25;;;;;;;22.23;58.10;100088.22;1087472;54;20731;-81
2022/10/30 15:05:38;;;;;;;11.02;6.47;;;;;;;22.15;58.26;100082.22;1087409;54;20046;-80
2022/10/30 15:06:59;;;;;;;9.60;5.53;;;;;;;22.12;58.73;100087.06;1087294;54;20067;-82
2022/10/30 15:08:17;;;;;;;11.52;5.00;;;;;;;22.08;59.10;100085.81;1087431;54;20027;-80
2022/10/30 15:09:33;;;;;;;9.60;4.93;;;;;;;22.10;59.12;100077.44;1087435;54;20030;-82
2022/10/30 15:10:38;;;;;;;10.88;4.97;;;;;;;22.11;59.07;100079.09;1092026;39;20677;-80
2022/10/30 15:12:08;;;;;;;11.32;5.95;;;;;;;22.06;59.26;100087.91;1087339;54;20034;-81
2022/10/30 15:13:17;;;;;;;9.38;5.78;;;;;;;22.04;59.16;100079.16;1087276;54;20042;-82
2022/10/30 15:14:25;;;;;;;10.10;5.22;;;;;;;22.02;59.31;100081.25;1087454;54;20026;-82
2022/10/30 15:15:29;;;;;;;10.15;5.25;;;;;;;22.07;59.08;100077.88;1088454;39;20884;-82
2022/10/30 15:16:39;;;;;;;9.93;5.78;;;;;;;22.07;59.14;100080.59;1087385;54;20061;-82
2022/10/30 15:17:45;;;;;;;8.95;5.28;;;;;;;22.13;59.20;100079.72;1087346;54;20061;-82
2022/10/30 15:18:54;;;;;;;10.15;5.35;;;;;;;22.13;58.92;100085.16;1087293;54;20042;-82
2022/10/30 15:20:00;;;;;;;12.05;5.35;;;;;;;22.07;59.38;100083.31;1087390;54;20065;-81
2022/10/30 15:21:06;;;;;;;9.35;5.50;;;;;;;22.09;59.41;100083.94;1087425;54;20060;-79
2022/10/30 15:22:20;;;;;;;11.35;4.70;;;;;;;22.01;59.47;100084.22;1087325;54;20014;-80
2022/10/30 15:23:28;;;;;;;11.43;5.82;;;;;;;21.96;60.03;100071.25;1087331;54;20124;-82
2022/10/30 15:24:35;;;;;;;10.23;4.97;;;;;;;21.93;60.02;100082.56;1087913;39;20751;-82
2022/10/30 15:25:49;;;;;;;9.38;5.05;;;;;;;21.92;60.09;100078.19;1087419;54;20027;-80
2022/10/30 15:26:56;;;;;;;8.27;5.20;;;;;;;21.92;59.81;100073.56;1087324;54;20038;-82
2022/10/30 15:27:58;;;;;;;9.63;5.72;;;;;;;21.95;59.78;100080.47;1087299;54;20045;-80
2022/10/30 15:29:03;;;;;;;8.85;5.10;;;;;;;22.00;59.82;100074.38;1088426;31;20768;-81
2022/10/30 15:30:13;;;;;;;8.80;4.70;;;;;;;21.97;59.85;100081.06;1087360;54;20694;-81
2022/10/30 15:31:23;;;;;;;9.98;4.90;;;;;;;21.85;60.18;100080.94;1087361;54;20018;-81
2022/10/30 15:32:28;;;;;;;8.25;5.35;;;;;;;21.81;60.64;100074.28;1087283;54;20065;-83
2022/10/30 15:33:34;;;;;;;13.18;5.38;;;;;;;21.80;60.75;100084.31;1087274;54;20045;-82
2022/10/30 15:34:35;;;;;;;10.90;6.35;;;;;;;21.77;60.64;100073.03;1087391;54;20049;-82
2022/10/30 15:35:48;;;;;;;7.75;5.38;;;;;;;21.74;60.84;100084.34;1087347;54;20030;-81
2022/10/30 15:36:50;;;;;;;8.75;5.10;;;;;;;21.75;60.58;100076.00;1087293;54;20057;-81
2022/10/30 15:38:05;;;;;;;9.73;5.60;;;;;;;21.69;60.76;100095.06;1087348;54;20030;-81
2022/10/30 15:39:10;;;;;;;12.32;5.90;;;;;;;21.71;61.13;100079.38;1087353;54;20067;-82
2022/10/30 15:40:20;;;;;;;12.32;7.00;;;;;;;21.68;61.28;100085.22;1087417;54;20037;-81
2022/10/30 15:41:22;;;;;;;10.73;6.93;;;;;;;21.63;61.45;100078.53;1088278;39;20902;-83
2022/10/30 15:42:26;;;;;;;15.48;7.50;;;;;;;21.65;61.28;100079.16;1087315;54;20015;-82
2022/10/30 15:43:33;;;;;;;11.65;7.47;;;;;;;21.57;61.36;100082.09;1087339;54;20030;-83
2022/10/30 15:44:38;;;;;;;12.18;7.07;;;;;;;21.56;61.45;100091.31;1086976;54;20033;-83
2022/10/30 15:45:45;;;;;;;10.50;7.50;;;;;;;21.52;61.58;100087.38;1087417;54;20074;-83
2022/10/30 15:46:49;;;;;;;12.77;7.63;;;;;;;21.50;61.91;100084.84;1087320;54;20038;-82
2022/10/30 15:48:02;;;;;;;10.23;7.40;;;;;;;21.48;61.87;100091.56;1087412;54;20030;-82
2022/10/30 15:49:04;;;;;;;12.68;6.05;;;;;;;21.47;62.13;100092.59;1087255;54;20035;-82
2022/10/30 15:50:08;;;;;;;10.48;6.93;;;;;;;21.50;62.01;100089.47;1087281;54;20839;-81
2022/10/30 15:51:16;;;;;;;11.77;6.00;;;;;;;21.41;62.30;100090.75;1087462;54;20018;-80
2022/10/30 15:52:24;;;;;;;11.48;6.22;;;;;;;21.34;62.36;100086.19;1087341;54;20034;-82
2022/10/30 15:53:35;;;;;;;9.27;5.55;;;;;;;21.28;62.46;100086.22;1087672;46;20030;-82
2022/10/30 15:54:43;;;;;;;8.63;5.40;;;;;;;21.30;62.70;100090.38;1087288;54;21107;-82
2022/10/30 15:55:48;;;;;;;8.55;5.47;;;;;;;21.31;62.38;100096.63;1087302;54;20065;-84
2022/10/30 15:56:53;;;;;;;10.52;5.30;;;;;;;21.28;62.80;100097.91;1087213;54;20065;-81
2022/10/30 15:58:00;;;;;;;7.85;5.35;;;;;;;21.29;62.62;100093.31;1087395;54;20065;-83
2022/10/30 15:59:04;;;;;;;8.63;5.53;;;;;;;21.24;63.05;100090.41;1087305;54;20061;-84
2022/10/30 16:00:21;;;;;;;10.07;6.00;;;;;;;21.19;63.18;100094.59;1088459;46;20034;-84
2022/10/30 16:01:24;;;;;;;10.40;5.40;;;;;;;21.12;63.45;100101.09;1087324;54;20034;-83
2022/10/30 16:02:28;;;;;;;8.38;5.68;;;;;;;21.15;63.38;100097.97;1087547;46;20769;-82
2022/10/30 16:03:30;;;;;;;10.15;4.90;;;;;;;21.11;63.43;100088.56;1087361;46;20038;-81
2022/10/30 16:04:38;;;;;;;7.93;4.93;;;;;;;21.07;63.55;100095.44;1087357;54;20042;-81
2022/10/30 16:05:39;;;;;;;9.95;5.63;;;;;;;20.99;63.98;100097.34;1087315;54;20057;-82
2022/10/30 16:06:51;;;;;;;9.77;5.53;;;;;;;20.91;64.03;100097.59;1088246;39;20645;-82
2022/10/30 16:07:55;;;;;;;7.20;4.88;;;;;;;20.93;64.21;100100.94;1087989;47;20085;-81
2022/10/30 16:09:04;;;;;;;6.72;4.30;;;;;;;20.93;63.87;100108.22;1087310;54;20031;-81
2022/10/30 16:10:09;;;;;;;13.63;5.67;;;;;;;20.84;64.10;100097.59;1087312;54;20034;-82
2022/10/30 16:11:14;;;;;;;11.00;5.70;;;;;;;20.82;64.55;100093.41;1087303;54;20279;-81
2022/10/30 16:12:18;;;;;;;11.32;5.72;;;;;;;20.80;64.56;100099.06;1087208;54;20034;-82
2022/10/30 16:13:24;;;;;;;12.93;5.50;;;;;;;20.74;64.69;100105.34;1087320;54;20030;-80
2022/10/30 16:14:31;;;;;;;10.20;5.15;;;;;;;20.73;64.58;100098.22;1087353;54;20030;-81
2022/10/30 16:15:37;;;;;;;8.52;5.38;;;;;;;20.74;64.72;100108.06;1087317;54;20046;-83
2022/10/30 16:16:41;;;;;;;7.55;5.30;;;;;;;20.75;64.59;100096.13;1087264;54;20030;-85
2022/10/30 16:17:43;;;;;;;7.85;4.90;;;;;;;20.77;64.81;100099.50;1087366;54;20041;-81
2022/10/30 16:18:47;;;;;;;11.70;5.55;;;;;;;20.75;64.80;100103.47;1087069;46;20074;-82
2022/10/30 16:19:51;;;;;;;10.93;5.25;;;;;;;20.71;65.06;100103.03;1089852;39;20674;-80
2022/10/30 16:20:57;;;;;;;9.00;5.43;;;;;;;20.66;64.97;100100.09;1087831;39;20626;-82
2022/10/30 16:21:58;;;;;;;10.48;4.82;;;;;;;20.60;65.06;100107.19;1087277;54;20034;-83
2022/10/30 16:23:04;;;;;;;9.10;5.80;;;;;;;20.58;65.36;100104.69;1087378;47;20041;-82
2022/10/30 16:24:11;;;;;;;14.63;6.05;;;;;;;20.44;65.71;100110.34;1087300;54;20042;-81
2022/10/30 16:25:16;;;;;;;12.70;5.97;;;;;;;20.40;65.89;100112.63;1087336;54;20057;-82
2022/10/30 16:26:31;;;;;;;10.40;5.93;;;;;;;20.37;66.33;100113.03;1089829;39;20654;-81
2022/10/30 16:27:33;;;;;;;9.95;6.07;;;;;;;20.40;65.96;100115.34;1087329;54;20046;-82
2022/10/30 16:28:39;;;;;;;9.48;5.50;;;;;;;20.41;65.80;100109.69;1087297;54;20030;-81
2022/10/30 16:29:41;;;;;;;9.18;5.85;;;;;;;20.44;65.83;100115.75;1087326;54;20038;-83
2022/10/30 16:30:45;;;;;;;10.15;5.90;;;;;;;20.40;65.85;100116.16;1087323;54;20086;-83
2022/10/30 16:31:48;;;;;;;11.27;6.40;;;;;;;20.29;66.29;100121.38;1087163;54;20039;-81
2022/10/30 16:32:54;;;;;;;13.93;6.78;;;;;;;20.17;66.60;100129.31;1087313;54;20053;-82
2022/10/30 16:33:57;;;;;;;18.13;7.85;;;;;;;20.12;66.73;100120.97;1087222;54;20038;-81
2022/10/30 16:35:04;;;;;;;12.52;7.28;;;;;;;20.02;67.16;100116.78;1087292;54;20042;-82
2022/10/30 16:36:07;;;;;;;15.43;7.53;;;;;;;20.09;66.86;100117.63;1088112;46;20039;-82
2022/10/30 16:37:16;;;;;;;13.43;7.68;;;;;;;20.12;67.07;100126.38;1087674;39;20312;-82
2022/10/30 16:38:18;;;;;;;11.25;6.97;;;;;;;20.09;66.92;100120.31;1087318;54;20030;-82
2022/10/30 16:39:26;;;;;;;15.55;8.70;;;;;;;19.93;67.54;100124.25;1087406;54;20041;-83
2022/10/30 16:40:28;;;;;;;13.18;7.45;;;;;;;19.94;67.44;100123.22;1087455;54;20050;-82
2022/10/30 16:41:33;;;;;;;11.85;7.63;;;;;;;19.99;67.40;100125.31;1088000;46;20034;-82
2022/10/30 16:42:35;;;;;;;13.63;8.13;;;;;;;19.93;67.75;100129.69;1087403;54;20015;-83
2022/10/30 16:43:39;;;;;;;13.27;7.93;;;;;;;19.99;67.19;100133.44;1087453;54;20030;-81
2022/10/30 16:44:41;;;;;;;13.32;7.85;;;;;;;20.01;67.09;100130.53;1087375;54;20042;-81
2022/10/30 16:45:50;;;;;;;11.48;7.53;;;;;;;20.01;67.14;100144.09;1087074;54;20042;-82
2022/10/30 16:46:56;;;;;;;13.05;7.50;;;;;;;19.95;67.41;100143.03;1087378;54;20061;-80
2022/10/30 16:48:01;;;;;;;12.07;7.97;;;;;;;19.92;67.53;100138.84;1087559;54;20034;-82
2022/10/30 16:49:10;;;;;;;13.48;8.07;;;;;;;19.90;67.59;100140.09;1087271;54;20030;-83
2022/10/30 16:50:17;;;;;;;11.57;7.72;;;;;;;19.89;67.65;100139.25;1087274;54;20034;-82
2022/10/30 16:51:20;;;;;;;12.95;8.27;;;;;;;19.93;67.60;100137.81;1088705;46;20038;-82
2022/10/30 16:52:29;;;;;;;12.82;8.27;;;;;;;19.88;67.65;100137.59;1087248;54;20042;-82
2022/10/30 16:53:31;;;;;;;13.88;9.43;;;;;;;19.80;67.92;100130.44;1087353;54;20034;-82
2022/10/30 16:54:40;;;;;;;14.30;8.75;;;;;;;19.74;68.48;100136.66;1090156;46;20034;-82
2022/10/30 16:55:41;;;;;;;14.07;9.73;;;;;;;19.70;68.50;100138.13;1088261;46;20038;-82
2022/10/30 16:56:48;;;;;;;14.20;9.20;;;;;;;19.69;68.35;100138.34;1090627;46;20121;-84
2022/10/30 16:57:54;;;;;;;15.75;9.90;;;;;;;19.65;68.79;100143.31;1087669;54;20038;-83
2022/10/30 16:59:07;;;;;;;15.70;9.80;;;;;;;19.63;68.90;100139.97;1087729;47;20038;-84
2022/10/30 17:00:18;;;;;;;20.38;10.50;;;;;;;19.51;69.31;100141.59;1090572;46;20014;-84
2022/10/30 17:01:26;;;;;;;16.35;10.07;;;;;;;19.51;69.21;100138.88;1087660;54;20038;-83
2022/10/30 17:02:33;;;;;;;13.95;9.70;;;;;;;19.48;69.32;100138.22;1087684;54;20114;-84
2022/10/30 17:03:39;;;;;;;16.83;10.63;;;;;;;19.46;69.47;100134.06;1087668;54;20046;-84
2022/10/30 17:04:47;;;;;;;14.07;10.18;;;;;;;19.47;69.45;100143.88;1087764;54;20041;-83
2022/10/30 17:05:57;;;;;;;18.35;11.95;;;;;;;19.28;70.33;100145.41;1087713;54;20034;-80
2022/10/30 17:07:17;;;;;;;18.95;13.23;;;;;;;19.25;70.53;100145.84;1087620;54;20120;-81
2022/10/30 17:08:32;;;;;;;19.10;11.73;;;;;;;19.17;71.03;100150.38;1087546;54;20364;-80
2022/10/30 17:09:40;;;;;;;17.10;10.50;;;;;;;19.21;70.58;100152.69;1087435;54;20046;-80
2022/10/30 17:10:54;;;;;;;16.25;10.48;;;;;;;19.24;70.36;100144.16;1087471;54;20094;-81
2022/10/30 17:12:20;;;;;;;17.73;10.70;;;;;;;19.22;70.98;100154.34;1087365;54;20035;-82
2022/10/30 17:13:33;;;;;;;13.73;9.32;;;;;;;19.17;70.88;100153.09;1087345;54;20034;-82
2022/10/30 17:14:58;;;;;;;13.25;9.30;;;;;;;19.14;71.28;100158.03;1088375;39;20689;-82
2022/10/30 17:16:23;;;;;;;12.75;9.05;;;;;;;19.07;71.73;100151.75;1087403;54;20037;-84
2022/10/30 17:17:33;;;;;;;15.40;11.27;;;;;;;19.05;71.65;100153.81;1087419;54;20029;-84
2022/10/30 17:18:41;;;;;;;;;;;;;;;18.86;72.99;100157.00;1087497;54;21090;-81
2022/10/30 17:20:00;;;;;;;17.20;11.75;;;;;;;18.94;71.69;100150.63;1087448;54;19942;-81
2022/10/30 17:21:12;;;;;;;16.00;11.27;;;;;;;18.97;71.90;100154.81;1087372;54;20038;-84
2022/10/30 17:22:23;;;;;;;16.80;10.35;;;;;;;19.01;71.51;100147.97;1087375;54;20042;-84
2022/10/30 17:23:24;;;;;;;;;;;;;;;18.84;72.27;100167.19;1087669;54;20018;-82
2022/10/30 17:24:37;;;;;;;14.60;10.30;;;;;;;18.94;71.58;100163.34;1087396;54;19942;-84
2022/10/30 17:26:30;;;;;;;13.65;9.65;;;;;;;18.95;71.83;100157.72;1087457;54;20015;-83
2022/10/30 17:27:44;;;;;;;12.90;9.05;;;;;;;18.92;71.78;100159.94;1087924;39;21098;-87
2022/10/30 17:29:36;;;;;;;16.27;10.48;;;;;;;18.91;71.74;100163.69;1087602;54;20090;-82
2022/10/30 17:30:44;;;;;;;12.80;9.38;;;;;;;18.93;71.75;100161.66;1087541;54;20059;-84
2022/10/30 17:34:23;;;;;;;15.48;10.90;;;;;;;18.86;71.97;100162.41;1087669;54;20042;-83
2022/10/30 17:35:37;;;;;;;18.60;9.50;;;;;;;18.82;72.51;100163.00;1087803;54;20043;-83
2022/10/30 17:37:23;;;;;;;14.23;9.18;;;;;;;18.85;71.84;100168.88;1087737;54;20029;-84
2022/10/30 17:41:15;;;;;;;15.70;10.45;;;;;;;18.32;74.60;100179.22;1087569;54;20031;-84
2022/10/30 17:42:17;;;;;;;19.63;11.88;;;;;;;18.27;74.29;100178.94;1087520;54;20034;-84
2022/10/30 17:43:26;;;;;;;18.80;10.95;;;;;;;18.32;74.05;100181.94;1087847;54;20034;-87
2022/10/30 17:44:32;;;;;;;16.73;11.90;;;;;;;18.26;74.76;100182.69;1087988;54;20030;-86
2022/10/30 17:45:39;;;;;;;19.95;12.23;;;;;;;18.19;74.79;100178.06;1087964;54;20026;-84
2022/10/30 17:48:17;;;;;;;18.50;12.40;;;;;;;18.16;74.97;100177.59;1087759;54;20060;-87
2022/10/30 17:49:32;;;;;;;17.60;11.98;;;;;;;18.19;74.92;100172.63;1091662;46;20059;-84
2022/10/30 17:50:53;;;;;;;15.20;10.95;;;;;;;18.27;74.42;100174.38;1088169;46;20018;-84
2022/10/30 17:52:20;;;;;;;15.45;10.85;;;;;;;18.29;74.07;100172.31;1088579;46;20037;-81
2022/10/30 18:07:28;;;;;;;15.02;10.43;;;;;;;18.18;74.32;100189.91;1088263;46;20053;-80
2022/10/30 18:08:32;;;;;;;18.73;10.55;;;;;;;18.17;74.34;100195.50;1088572;46;20034;-84
2022/10/30 18:09:37;;;;;;;16.15;11.88;;;;;;;18.13;74.31;100183.38;1087983;54;20026;-83
2022/10/30 18:10:39;;;;;;;18.65;12.38;;;;;;;18.02;74.73;100190.13;1088061;46;20023;-86
2022/10/30 18:11:43;;;;;;;19.63;13.40;;;;;;;17.93;75.08;100201.03;1087932;54;20026;-82
2022/10/30 18:12:47;;;;;;;17.98;12.13;;;;;;;18.02;74.95;100195.53;1088641;46;20062;-81
2022/10/30 18:13:53;;;;;;;19.33;12.27;;;;;;;18.03;74.71;100192.63;1087840;54;20038;-84
2022/10/30 18:15:32;;;;;;;15.00;11.73;;;;;;;18.02;74.72;100198.25;1088291;46;20049;-81
2022/10/30 18:16:33;;;;;;;15.20;11.18;;;;;;;18.00;75.08;100201.13;1087963;54;20106;-83
2022/10/30 18:17:40;;;;;;;14.55;10.80;;;;;;;18.06;74.65;100205.78;1087636;54;20034;-84
2022/10/30 18:18:44;;;;;;;13.27;9.63;;;;;;;18.00;74.68;100201.13;1087598;54;20034;-85
2022/10/30 18:19:49;;;;;;;16.13;11.55;;;;;;;17.95;75.12;100203.53;1087627;47;20038;-80
2022/10/30 18:20:51;;;;;;;17.70;12.13;;;;;;;17.98;74.98;100199.66;1087669;54;20049;-83
2022/10/30 18:22:14;;;;;;;15.82;11.18;;;;;;;17.93;74.89;100203.75;1087627;54;20034;-82
2022/10/30 18:23:25;;;;;;;20.50;11.85;;;;;;;17.84;75.46;100201.31;1087596;54;20035;-81
2022/10/30 18:24:29;;;;;;;;;;;;;;;17.61;76.55;100200.41;1087805;54;20040;-83
2022/10/30 18:25:33;;;;;;;17.27;12.07;;;;;;;17.55;76.41;100200.31;1087616;54;19949;-83
2022/10/30 18:26:37;;;;;;;16.60;11.52;;;;;;;17.46;76.62;100208.53;1087608;54;20026;-84
2022/10/30 18:27:45;;;;;;;19.20;11.48;;;;;;;17.40;76.90;100205.72;1087713;54;20030;-85
2022/10/30 18:28:47;;;;;;;15.52;10.60;;;;;;;17.37;77.27;100208.81;1087688;54;20041;-83